Time;durP1;ratioP1;P1;durP2;ratioP2;P2;SDS_P1;SDS_P2;PMS_P1;PMS_P2;Temp;Humidity;BMP_temperature;BMP_pressure;BME280_temperature;BME280_humidity;BME280_pressure;Samples;Min_cycle;Max_cycle;Signal;HPM_P1;HPM_P2
2024/03/31 00:02:13;;;;;;;20.47;15.37;;;;;;;;;;5005131;28;58389;-76
2024/03/31 00:04:40;;;;;;;18.23;14.63;;;;;;;;;;5006761;28;57788;-76
2024/03/31 00:07:05;;;;;;;20.67;14.95;;;;;;;;;;5004345;28;58647;-77
2024/03/31 00:09:30;;;;;;;17.45;14.60;;;;;;;;;;5005882;28;58731;-76
2024/03/31 00:11:56;;;;;;;18.93;14.87;;;;;;;;;;5007469;28;57839;-76
2024/03/31 00:14:21;;;;;;;19.95;15.38;;;;;;;;;;5003927;28;58455;-76
2024/03/31 00:16:46;;;;;;;18.67;15.37;;;;;;;;;;4994505;28;58209;-76
2024/03/31 00:19:11;;;;;;;19.70;15.47;;;;;;;;;;4994259;28;57948;-76
2024/03/31 00:21:37;;;;;;;18.47;15.23;;;;;;;;;;5010272;28;60011;-76
2024/03/31 00:24:02;;;;;;;18.37;15.67;;;;;;;;;;5001002;28;58858;-76
2024/03/31 00:26:27;;;;;;;19.77;14.67;;;;;;;;;;5004621;28;59514;-76
2024/03/31 00:28:52;;;;;;;18.93;15.27;;;;;;;;;;4993111;28;59401;-76
2024/03/31 00:31:17;;;;;;;17.43;13.97;;;;;;;;;;4994658;28;57927;-76
2024/03/31 00:33:42;;;;;;;18.40;15.47;;;;;;;;;;4995430;28;58414;-76
2024/03/31 00:36:09;;;;;;;20.87;16.80;;;;;;;;;;4990175;28;58647;-76
2024/03/31 00:38:34;;;;;;;17.20;13.85;;;;;;;;;;4989993;28;57894;-76
2024/03/31 00:41:00;;;;;;;19.90;15.53;;;;;;;;;;4993563;28;58565;-76
2024/03/31 00:43:25;;;;;;;18.23;15.05;;;;;;;;;;4985783;28;57942;-76
2024/03/31 00:45:50;;;;;;;19.88;15.82;;;;;;;;;;4994395;28;58332;-76
2024/03/31 00:48:15;;;;;;;15.80;14.07;;;;;;;;;;4999366;28;58011;-76
2024/03/31 00:50:40;;;;;;;16.60;14.65;;;;;;;;;;5000090;28;58108;-76
2024/03/31 00:53:05;;;;;;;18.87;14.60;;;;;;;;;;4999201;28;57963;-76
2024/03/31 00:55:30;;;;;;;19.95;16.05;;;;;;;;;;5007608;28;57910;-76
2024/03/31 00:57:56;;;;;;;18.07;14.63;;;;;;;;;;5008527;28;58057;-76
2024/03/31 01:00:21;;;;;;;16.55;14.40;;;;;;;;;;5003391;28;58665;-76
2024/03/31 01:02:46;;;;;;;18.03;14.37;;;;;;;;;;4999967;28;57875;-76
2024/03/31 01:05:12;;;;;;;18.23;14.10;;;;;;;;;;4997391;28;57575;-76
2024/03/31 01:07:37;;;;;;;18.08;15.02;;;;;;;;;;5010308;28;57766;-76
2024/03/31 01:10:03;;;;;;;17.67;14.57;;;;;;;;;;5009457;28;57898;-76
2024/03/31 01:12:28;;;;;;;17.33;14.18;;;;;;;;;;5007532;28;58735;-76
2024/03/31 01:14:55;;;;;;;15.30;13.70;;;;;;;;;;5017889;28;59307;-76
2024/03/31 01:17:20;;;;;;;17.35;13.77;;;;;;;;;;5008970;28;58154;-76
2024/03/31 01:19:45;;;;;;;17.50;15.52;;;;;;;;;;5010967;28;58336;-76
2024/03/31 01:22:11;;;;;;;16.30;13.73;;;;;;;;;;5008777;28;58931;-76
2024/03/31 01:24:36;;;;;;;15.50;13.10;;;;;;;;;;5009357;28;57811;-76
2024/03/31 01:27:01;;;;;;;15.57;13.43;;;;;;;;;;5009241;28;59190;-76
2024/03/31 01:29:26;;;;;;;14.90;13.33;;;;;;;;;;5008985;28;57787;-76
2024/03/31 01:31:51;;;;;;;15.10;13.47;;;;;;;;;;5008740;28;59014;-76
2024/03/31 01:34:17;;;;;;;16.20;12.23;;;;;;;;;;5007734;28;59606;-76
2024/03/31 01:36:42;;;;;;;13.82;12.40;;;;;;;;;;5009126;28;58075;-76
2024/03/31 01:39:07;;;;;;;14.45;12.05;;;;;;;;;;5010632;28;58854;-76
2024/03/31 01:41:32;;;;;;;15.60;13.77;;;;;;;;;;5006876;28;58748;-76
2024/03/31 01:43:58;;;;;;;16.48;12.90;;;;;;;;;;5010630;28;57501;-76
2024/03/31 01:46:23;;;;;;;16.75;13.13;;;;;;;;;;5008350;28;57982;-76
2024/03/31 01:48:48;;;;;;;13.70;12.27;;;;;;;;;;5009719;28;58195;-76
2024/03/31 01:51:13;;;;;;;15.65;13.32;;;;;;;;;;5007691;28;59521;-76
2024/03/31 01:53:38;;;;;;;14.83;12.47;;;;;;;;;;5006488;28;58238;-76
2024/03/31 01:56:03;;;;;;;12.10;10.90;;;;;;;;;;4993893;28;58294;-76
2024/03/31 01:58:29;;;;;;;14.93;11.77;;;;;;;;;;5008814;28;59169;-77
2024/03/31 02:00:54;;;;;;;13.80;11.63;;;;;;;;;;5007075;28;58772;-77
2024/03/31 02:03:19;;;;;;;13.65;11.13;;;;;;;;;;5007785;28;57840;-77
2024/03/31 02:05:44;;;;;;;13.07;10.43;;;;;;;;;;5008369;28;57886;-77
2024/03/31 02:08:09;;;;;;;14.33;11.77;;;;;;;;;;5007225;28;58183;-76
2024/03/31 02:10:34;;;;;;;11.65;9.98;;;;;;;;;;5009529;28;58073;-77
2024/03/31 02:12:59;;;;;;;13.50;11.35;;;;;;;;;;5007565;28;58692;-77
2024/03/31 02:15:25;;;;;;;13.57;10.83;;;;;;;;;;5006779;28;58453;-75
2024/03/31 02:17:50;;;;;;;12.13;10.83;;;;;;;;;;5008349;28;58646;-76
2024/03/31 02:20:15;;;;;;;12.93;11.40;;;;;;;;;;5007615;28;58882;-77
2024/03/31 02:22:40;;;;;;;11.55;10.35;;;;;;;;;;5006496;28;57950;-77
2024/03/31 02:25:06;;;;;;;13.20;10.30;;;;;;;;;;5008496;28;58102;-76
2024/03/31 02:27:31;;;;;;;11.77;10.23;;;;;;;;;;5006033;28;58938;-76
2024/03/31 02:29:57;;;;;;;12.33;10.33;;;;;;;;;;5003103;28;58319;-76
2024/03/31 02:32:22;;;;;;;11.88;10.50;;;;;;;;;;4994733;28;58677;-75
2024/03/31 02:34:47;;;;;;;12.00;9.20;;;;;;;;;;4996918;28;57832;-76
2024/03/31 02:37:12;;;;;;;12.07;10.20;;;;;;;;;;4995454;28;58657;-75
2024/03/31 02:39:38;;;;;;;11.57;10.13;;;;;;;;;;4995895;28;57910;-76
2024/03/31 02:42:03;;;;;;;11.33;9.77;;;;;;;;;;5002084;28;57930;-76
2024/03/31 02:44:28;;;;;;;10.70;9.00;;;;;;;;;;5006840;28;59355;-76
2024/03/31 02:46:53;;;;;;;11.87;9.83;;;;;;;;;;5007536;28;59120;-75
2024/03/31 02:49:18;;;;;;;14.13;10.33;;;;;;;;;;5007301;28;57799;-76
2024/03/31 02:51:44;;;;;;;11.87;10.00;;;;;;;;;;5008156;28;58290;-77
2024/03/31 02:54:09;;;;;;;11.03;9.33;;;;;;;;;;5008822;28;59134;-76
2024/03/31 02:56:34;;;;;;;11.47;10.00;;;;;;;;;;5008633;28;58816;-79
2024/03/31 02:59:00;;;;;;;10.63;9.53;;;;;;;;;;5007768;28;59282;-78
2024/03/31 03:01:25;;;;;;;11.50;9.73;;;;;;;;;;5006405;28;58185;-78
2024/03/31 03:03:50;;;;;;;12.15;9.27;;;;;;;;;;5008400;28;57982;-78
2024/03/31 03:06:15;;;;;;;11.00;9.60;;;;;;;;;;4999063;28;59738;-78
2024/03/31 03:08:41;;;;;;;11.52;9.45;;;;;;;;;;4999354;28;58121;-78
2024/03/31 03:11:06;;;;;;;11.00;9.50;;;;;;;;;;5006806;28;58071;-78
2024/03/31 03:13:31;;;;;;;12.23;10.18;;;;;;;;;;5006886;28;59776;-78
2024/03/31 03:16:00;;;;;;;13.45;10.45;;;;;;;;;;5007622;28;57912;-78
2024/03/31 03:18:25;;;;;;;11.65;8.63;;;;;;;;;;5004389;28;58996;-78
2024/03/31 03:20:50;;;;;;;10.80;8.70;;;;;;;;;;5006342;28;58388;-78
2024/03/31 03:23:16;;;;;;;10.03;9.10;;;;;;;;;;5007929;28;59588;-78
2024/03/31 03:25:41;;;;;;;10.83;9.73;;;;;;;;;;5006419;28;59840;-78
2024/03/31 03:28:06;;;;;;;9.73;8.63;;;;;;;;;;5007334;28;58020;-78
2024/03/31 03:30:36;;;;;;;9.40;8.40;;;;;;;;;;5008648;28;58918;-78
2024/03/31 03:33:01;;;;;;;10.38;9.00;;;;;;;;;;5003772;28;58219;-77
2024/03/31 03:35:26;;;;;;;9.40;8.50;;;;;;;;;;5006459;28;57613;-76
2024/03/31 03:37:51;;;;;;;9.80;8.80;;;;;;;;;;5007510;28;58375;-78
2024/03/31 03:40:17;;;;;;;10.43;9.20;;;;;;;;;;5008940;28;58240;-79
2024/03/31 03:42:42;;;;;;;9.00;8.10;;;;;;;;;;5007279;28;57946;-79
2024/03/31 03:45:07;;;;;;;9.13;8.17;;;;;;;;;;5007096;28;57768;-78
2024/03/31 03:47:33;;;;;;;9.45;8.45;;;;;;;;;;5003645;28;58001;-78
2024/03/31 03:49:58;;;;;;;10.53;9.10;;;;;;;;;;4997597;28;58643;-79
2024/03/31 03:52:23;;;;;;;10.23;9.17;;;;;;;;;;4993753;28;58534;-78
2024/03/31 03:54:48;;;;;;;10.37;9.10;;;;;;;;;;5019369;28;58092;-79
2024/03/31 03:57:13;;;;;;;8.47;7.67;;;;;;;;;;5006330;28;58411;-78
2024/03/31 03:59:39;;;;;;;9.60;8.20;;;;;;;;;;5004173;28;58170;-79
2024/03/31 04:02:04;;;;;;;10.00;8.33;;;;;;;;;;5006945;28;57946;-78
2024/03/31 04:04:29;;;;;;;9.40;8.40;;;;;;;;;;4989556;28;59921;-78
2024/03/31 04:06:55;;;;;;;9.47;8.50;;;;;;;;;;5006558;28;57874;-78
2024/03/31 04:09:20;;;;;;;9.07;8.17;;;;;;;;;;5006235;28;57778;-78
2024/03/31 04:11:45;;;;;;;8.90;8.00;;;;;;;;;;5006868;28;58004;-78
2024/03/31 04:14:11;;;;;;;9.30;8.40;;;;;;;;;;5006693;28;58336;-78
2024/03/31 04:16:36;;;;;;;10.30;9.03;;;;;;;;;;5006979;28;57855;-78
2024/03/31 04:19:01;;;;;;;9.47;8.50;;;;;;;;;;5006375;28;58207;-78
2024/03/31 04:21:27;;;;;;;8.80;8.00;;;;;;;;;;5005648;28;57990;-78
2024/03/31 04:23:54;;;;;;;9.13;8.23;;;;;;;;;;5007257;28;58011;-78
2024/03/31 04:26:19;;;;;;;10.73;9.20;;;;;;;;;;5003788;28;58881;-78
2024/03/31 04:28:44;;;;;;;8.90;8.00;;;;;;;;;;5007041;28;58122;-78
2024/03/31 04:31:09;;;;;;;9.30;8.07;;;;;;;;;;5004689;28;58930;-78
2024/03/31 04:33:34;;;;;;;10.83;8.03;;;;;;;;;;4995126;28;58199;-78
2024/03/31 04:36:00;;;;;;;9.60;8.48;;;;;;;;;;4993196;28;57815;-78
2024/03/31 04:38:25;;;;;;;9.82;8.38;;;;;;;;;;5005018;28;59394;-78
2024/03/31 04:40:55;;;;;;;8.50;7.07;;;;;;;;;;5006559;28;58139;-78
2024/03/31 04:43:20;;;;;;;9.45;7.97;;;;;;;;;;5004791;28;59063;-78
2024/03/31 04:45:45;;;;;;;9.27;8.37;;;;;;;;;;5007330;28;58047;-78
2024/03/31 04:48:11;;;;;;;8.60;7.80;;;;;;;;;;5005282;28;58387;-78
2024/03/31 04:50:36;;;;;;;8.60;7.80;;;;;;;;;;5006971;28;58978;-78
2024/03/31 04:53:02;;;;;;;8.90;8.00;;;;;;;;;;5006966;28;58208;-78
2024/03/31 04:55:27;;;;;;;8.30;7.50;;;;;;;;;;5006590;28;58622;-78
2024/03/31 04:57:52;;;;;;;9.07;8.20;;;;;;;;;;4997298;28;57902;-78
2024/03/31 05:00:17;;;;;;;8.57;7.77;;;;;;;;;;5015785;28;57777;-78
2024/03/31 05:02:45;;;;;;;8.63;7.78;;;;;;;;;;5005050;28;58004;-79
2024/03/31 05:05:10;;;;;;;9.40;7.72;;;;;;;;;;4991756;28;57995;-79
2024/03/31 05:07:35;;;;;;;8.10;7.30;;;;;;;;;;5004023;28;58701;-78
2024/03/31 05:10:00;;;;;;;9.27;7.10;;;;;;;;;;5004781;28;58933;-78
2024/03/31 05:12:26;;;;;;;8.10;7.33;;;;;;;;;;4998746;28;58078;-78
2024/03/31 05:14:51;;;;;;;8.80;7.90;;;;;;;;;;4993363;28;57969;-79
2024/03/31 05:17:16;;;;;;;8.57;7.67;;;;;;;;;;4994005;28;58004;-79
2024/03/31 05:19:41;;;;;;;7.63;6.55;;;;;;;;;;4996473;28;58086;-79
2024/03/31 05:22:06;;;;;;;8.20;7.25;;;;;;;;;;4996126;28;57823;-78
2024/03/31 05:24:31;;;;;;;7.22;6.53;;;;;;;;;;5002477;28;58171;-79
2024/03/31 05:26:56;;;;;;;8.00;7.23;;;;;;;;;;5004235;28;57759;-78
2024/03/31 05:29:22;;;;;;;8.43;7.27;;;;;;;;;;4994570;28;59254;-76
2024/03/31 05:31:47;;;;;;;7.63;6.97;;;;;;;;;;4996382;28;57832;-76
2024/03/31 05:34:12;;;;;;;7.10;6.43;;;;;;;;;;4995124;28;58553;-76
2024/03/31 05:36:37;;;;;;;8.05;7.25;;;;;;;;;;4995204;28;58744;-76
2024/03/31 05:39:02;;;;;;;7.72;7.00;;;;;;;;;;5002047;28;58176;-76
2024/03/31 05:41:28;;;;;;;7.30;6.60;;;;;;;;;;5005358;28;58123;-76
2024/03/31 05:43:53;;;;;;;6.93;6.32;;;;;;;;;;5000877;28;60602;-76
2024/03/31 05:46:19;;;;;;;7.63;6.60;;;;;;;;;;4997616;28;58536;-76
2024/03/31 05:48:44;;;;;;;8.52;7.28;;;;;;;;;;4995883;28;59014;-76
2024/03/31 05:51:09;;;;;;;8.18;7.13;;;;;;;;;;4996521;28;58105;-76
2024/03/31 05:53:34;;;;;;;7.57;6.47;;;;;;;;;;5001840;28;57893;-76
2024/03/31 05:56:01;;;;;;;6.45;5.85;;;;;;;;;;5009438;28;57869;-76
2024/03/31 05:58:26;;;;;;;6.90;6.30;;;;;;;;;;5010198;28;57585;-76
2024/03/31 06:00:52;;;;;;;6.10;5.50;;;;;;;;;;5001189;28;58764;-76
2024/03/31 06:03:17;;;;;;;6.22;5.63;;;;;;;;;;5000179;28;59615;-76
2024/03/31 06:05:42;;;;;;;6.20;5.60;;;;;;;;;;5003885;28;58129;-76
2024/03/31 06:08:07;;;;;;;6.10;5.50;;;;;;;;;;5008643;28;58031;-76
2024/03/31 06:10:34;;;;;;;4.97;4.47;;;;;;;;;;4997675;28;58157;-76
2024/03/31 06:12:59;;;;;;;6.70;5.38;;;;;;;;;;4998699;28;57932;-76
2024/03/31 06:15:24;;;;;;;5.93;5.32;;;;;;;;;;5000919;28;58899;-76
2024/03/31 06:17:50;;;;;;;5.70;4.70;;;;;;;;;;5004990;28;57872;-76
2024/03/31 06:20:15;;;;;;;4.80;4.40;;;;;;;;;;4994946;28;57890;-75
2024/03/31 06:22:40;;;;;;;6.37;5.13;;;;;;;;;;5006663;28;57921;-75
2024/03/31 06:25:06;;;;;;;4.97;4.57;;;;;;;;;;4996918;28;57838;-76
2024/03/31 06:27:31;;;;;;;5.37;4.87;;;;;;;;;;5001391;28;60251;-77
2024/03/31 06:29:56;;;;;;;5.50;5.10;;;;;;;;;;5008351;28;58190;-76
2024/03/31 06:32:22;;;;;;;5.13;4.63;;;;;;;;;;5006395;28;59766;-76
2024/03/31 06:34:50;;;;;;;4.07;3.75;;;;;;;;;;5009690;28;59727;-76
2024/03/31 06:37:17;;;;;;;4.57;4.05;;;;;;;;;;5006717;28;58022;-76
2024/03/31 06:39:42;;;;;;;4.72;4.30;;;;;;;;;;5006549;28;58702;-76
2024/03/31 06:42:07;;;;;;;4.03;3.67;;;;;;;;;;5007919;28;58651;-76
2024/03/31 06:44:32;;;;;;;4.80;4.40;;;;;;;;;;5007379;28;58224;-76
2024/03/31 06:46:58;;;;;;;4.30;3.90;;;;;;;;;;5007738;28;58967;-76
2024/03/31 06:49:23;;;;;;;4.13;3.67;;;;;;;;;;5005634;28;59832;-76
2024/03/31 06:51:48;;;;;;;3.75;3.45;;;;;;;;;;5008224;28;58355;-76
2024/03/31 06:54:13;;;;;;;4.88;3.92;;;;;;;;;;5004851;28;58465;-75
2024/03/31 06:56:38;;;;;;;4.43;3.00;;;;;;;;;;5009420;28;58220;-76
2024/03/31 06:59:04;;;;;;;3.30;3.00;;;;;;;;;;5007689;28;58381;-76
2024/03/31 07:01:29;;;;;;;4.00;3.63;;;;;;;;;;5006787;28;59037;-76
2024/03/31 07:03:54;;;;;;;3.47;3.17;;;;;;;;;;5005883;28;58083;-76
2024/03/31 07:06:19;;;;;;;3.25;2.95;;;;;;;;;;5002844;28;59402;-76
2024/03/31 07:08:44;;;;;;;3.65;3.35;;;;;;;;;;4997637;28;58731;-76
2024/03/31 07:11:09;;;;;;;3.07;2.77;;;;;;;;;;5009418;28;58248;-76
2024/03/31 07:13:34;;;;;;;3.55;3.25;;;;;;;;;;5006421;28;58770;-76
2024/03/31 07:16:00;;;;;;;3.17;2.90;;;;;;;;;;4991390;28;57824;-76
2024/03/31 07:18:25;;;;;;;3.47;2.92;;;;;;;;;;4993074;28;57812;-76
2024/03/31 07:20:50;;;;;;;3.13;2.92;;;;;;;;;;4998638;28;58657;-76
2024/03/31 07:23:15;;;;;;;3.30;3.00;;;;;;;;;;5004791;28;59266;-76
2024/03/31 07:25:40;;;;;;;3.00;2.75;;;;;;;;;;5008616;28;59271;-76
2024/03/31 07:28:05;;;;;;;3.30;3.10;;;;;;;;;;4995559;28;59743;-76
2024/03/31 07:30:30;;;;;;;2.90;2.50;;;;;;;;;;4993810;28;57680;-76
2024/03/31 07:32:55;;;;;;;3.10;2.90;;;;;;;;;;4995050;28;58013;-76
2024/03/31 07:35:21;;;;;;;2.90;2.60;;;;;;;;;;4995467;28;58125;-76
2024/03/31 07:37:46;;;;;;;2.90;2.70;;;;;;;;;;4996976;28;59573;-76
2024/03/31 07:40:12;;;;;;;2.58;2.38;;;;;;;;;;4993220;28;58601;-76
2024/03/31 07:42:37;;;;;;;2.80;2.60;;;;;;;;;;5005091;28;58101;-76
2024/03/31 07:45:03;;;;;;;2.60;2.40;;;;;;;;;;5007793;28;58177;-76
2024/03/31 07:47:28;;;;;;;2.83;2.63;;;;;;;;;;5005161;28;60151;-76
2024/03/31 07:49:53;;;;;;;2.80;2.35;;;;;;;;;;5007070;28;57927;-76
2024/03/31 07:52:18;;;;;;;2.50;2.28;;;;;;;;;;5005650;28;58317;-76
2024/03/31 07:54:44;;;;;;;2.50;2.30;;;;;;;;;;5006409;28;57580;-76
2024/03/31 07:57:09;;;;;;;2.72;2.50;;;;;;;;;;5006517;28;58603;-76
2024/03/31 07:59:34;;;;;;;2.33;2.13;;;;;;;;;;5007125;28;58798;-75
2024/03/31 08:01:59;;;;;;;2.15;1.98;;;;;;;;;;5005928;28;57758;-78
2024/03/31 08:04:25;;;;;;;2.45;2.25;;;;;;;;;;5006522;28;58336;-76
2024/03/31 08:06:50;;;;;;;2.28;2.08;;;;;;;;;;5005531;28;58712;-74
2024/03/31 08:09:15;;;;;;;1.83;1.73;;;;;;;;;;5006042;28;57884;-77
2024/03/31 08:11:40;;;;;;;1.98;1.88;;;;;;;;;;5005396;28;59090;-77
2024/03/31 08:14:05;;;;;;;2.08;1.98;;;;;;;;;;5006266;28;58243;-76
2024/03/31 08:16:30;;;;;;;2.15;1.95;;;;;;;;;;5006843;28;57998;-76
2024/03/31 08:18:57;;;;;;;1.80;1.70;;;;;;;;;;5005297;28;59889;-76
2024/03/31 08:21:22;;;;;;;1.92;1.83;;;;;;;;;;5005856;28;58216;-74
2024/03/31 08:23:47;;;;;;;1.70;1.60;;;;;;;;;;5006284;28;58944;-74
2024/03/31 08:26:13;;;;;;;2.15;2.05;;;;;;;;;;5004021;28;57891;-73
2024/03/31 08:28:38;;;;;;;1.63;1.53;;;;;;;;;;5004846;28;57957;-76
2024/03/31 08:31:03;;;;;;;2.08;1.88;;;;;;;;;;5007141;28;58365;-74
2024/03/31 08:33:28;;;;;;;2.03;1.90;;;;;;;;;;4991699;28;59035;-76
2024/03/31 08:35:54;;;;;;;1.90;1.80;;;;;;;;;;4990885;28;57539;-77
2024/03/31 08:38:19;;;;;;;1.70;1.60;;;;;;;;;;4991924;28;57828;-76
2024/03/31 08:40:46;;;;;;;2.00;1.80;;;;;;;;;;4987875;28;57797;-76
2024/03/31 08:43:13;;;;;;;1.83;1.73;;;;;;;;;;4994099;28;59816;-77
2024/03/31 08:45:39;;;;;;;1.67;1.13;;;;;;;;;;5002284;28;58725;-75
2024/03/31 08:48:05;;;;;;;1.40;1.30;;;;;;;;;;5002479;28;57674;-77
2024/03/31 08:50:30;;;;;;;1.30;1.20;;;;;;;;;;4996660;28;59856;-76
2024/03/31 08:52:55;;;;;;;1.60;1.50;;;;;;;;;;5006103;28;58858;-76
2024/03/31 08:55:20;;;;;;;2.60;1.67;;;;;;;;;;4992503;28;58062;-76
2024/03/31 08:57:46;;;;;;;1.67;1.58;;;;;;;;;;4996027;28;57899;-76
2024/03/31 09:00:11;;;;;;;1.50;1.40;;;;;;;;;;4999040;28;58164;-76
2024/03/31 09:02:38;;;;;;;1.40;1.30;;;;;;;;;;5005347;28;58178;-76
2024/03/31 09:05:03;;;;;;;1.95;1.20;;;;;;;;;;4992466;28;58967;-77
2024/03/31 09:07:31;;;;;;;1.50;1.38;;;;;;;;;;4995833;28;58128;-76
2024/03/31 09:09:56;;;;;;;1.38;1.27;;;;;;;;;;4997211;28;58587;-76
2024/03/31 09:12:21;;;;;;;1.58;1.48;;;;;;;;;;4993139;28;58926;-76
2024/03/31 09:14:47;;;;;;;1.40;1.30;;;;;;;;;;4996441;28;57748;-76
2024/03/31 09:17:13;;;;;;;1.40;1.30;;;;;;;;;;4995688;28;59279;-76
2024/03/31 09:19:38;;;;;;;1.50;1.40;;;;;;;;;;4997626;28;59030;-76
2024/03/31 09:22:04;;;;;;;1.17;1.10;;;;;;;;;;4996595;28;58099;-76
2024/03/31 09:24:30;;;;;;;1.20;1.17;;;;;;;;;;5005558;28;58874;-76
2024/03/31 09:26:55;;;;;;;1.45;1.35;;;;;;;;;;5004141;28;58107;-77
2024/03/31 09:29:21;;;;;;;1.27;1.17;;;;;;;;;;4998866;28;57830;-77
2024/03/31 09:31:47;;;;;;;0.90;0.90;;;;;;;;;;5007984;28;59089;-76
2024/03/31 09:34:12;;;;;;;1.35;1.17;;;;;;;;;;5010417;28;57995;-76
2024/03/31 09:36:37;;;;;;;1.20;1.10;;;;;;;;;;5008853;28;57990;-75
2024/03/31 09:39:03;;;;;;;1.03;1.00;;;;;;;;;;5008949;28;59710;-76
2024/03/31 09:41:28;;;;;;;0.82;0.82;;;;;;;;;;5007060;28;58752;-76
2024/03/31 09:43:53;;;;;;;0.80;0.80;;;;;;;;;;5001105;28;58776;-75
2024/03/31 09:46:19;;;;;;;1.27;1.17;;;;;;;;;;5010364;28;57855;-75
2024/03/31 09:48:45;;;;;;;1.23;1.13;;;;;;;;;;5003559;28;57858;-75
2024/03/31 09:51:16;;;;;;;1.63;1.10;;;;;;;;;;5003181;28;58965;-75
2024/03/31 09:53:43;;;;;;;1.45;1.35;;;;;;;;;;5010791;28;57882;-75
2024/03/31 09:56:09;;;;;;;1.30;1.20;;;;;;;;;;5010789;28;57846;-74
2024/03/31 09:58:35;;;;;;;1.60;1.50;;;;;;;;;;4995704;28;58000;-75
2024/03/31 10:01:05;;;;;;;0.80;0.80;;;;;;;;;;5007317;28;58101;-74
2024/03/31 10:03:41;;;;;;;2.58;1.77;;;;;;;;;;4999593;28;58977;-76
2024/03/31 10:06:07;;;;;;;1.30;1.20;;;;;;;;;;5001395;28;57823;-75
2024/03/31 10:08:32;;;;;;;1.27;1.10;;;;;;;;;;5007425;28;59511;-76
2024/03/31 10:10:58;;;;;;;2.30;2.10;;;;;;;;;;5008797;28;59751;-75
2024/03/31 10:13:25;;;;;;;1.38;1.27;;;;;;;;;;5007523;28;57750;-75
2024/03/31 10:15:50;;;;;;;1.40;1.30;;;;;;;;;;5010368;28;59369;-75
2024/03/31 10:18:16;;;;;;;1.65;1.55;;;;;;;;;;5007692;28;58070;-75
2024/03/31 10:20:44;;;;;;;1.20;1.10;;;;;;;;;;5008614;28;57767;-76
2024/03/31 10:23:10;;;;;;;2.28;1.30;;;;;;;;;;5007978;28;58562;-75
2024/03/31 10:25:35;;;;;;;1.27;1.10;;;;;;;;;;4996285;28;58175;-76
2024/03/31 10:28:00;;;;;;;9.90;1.90;;;;;;;;;;5006628;28;59524;-75
2024/03/31 10:30:27;;;;;;;1.40;1.30;;;;;;;;;;5009061;28;58811;-75
2024/03/31 10:32:52;;;;;;;1.52;1.42;;;;;;;;;;5006387;28;57986;-75
2024/03/31 10:35:17;;;;;;;10.60;1.80;;;;;;;;;;4996040;28;57977;-76
2024/03/31 10:37:43;;;;;;;1.17;1.07;;;;;;;;;;5008638;28;58177;-75
2024/03/31 10:40:11;;;;;;;1.33;1.23;;;;;;;;;;4996325;28;58034;-75
2024/03/31 10:42:36;;;;;;;1.10;1.10;;;;;;;;;;5006432;28;58447;-75
2024/03/31 10:45:03;;;;;;;1.83;1.73;;;;;;;;;;5003760;28;58873;-76
2024/03/31 10:47:29;;;;;;;1.58;1.48;;;;;;;;;;4995252;28;58660;-76
2024/03/31 10:49:58;;;;;;;1.77;1.67;;;;;;;;;;4999451;28;59981;-76
2024/03/31 10:52:24;;;;;;;1.40;1.30;;;;;;;;;;5010676;28;57844;-76
2024/03/31 10:54:51;;;;;;;2.83;1.50;;;;;;;;;;4995470;28;58847;-76
2024/03/31 10:57:16;;;;;;;1.40;1.30;;;;;;;;;;5001788;28;58776;-76
2024/03/31 10:59:41;;;;;;;1.38;1.27;;;;;;;;;;5002946;28;57970;-76
2024/03/31 11:02:14;;;;;;;1.70;1.60;;;;;;;;;;4990894;28;58527;-76
2024/03/31 11:04:43;;;;;;;2.15;1.88;;;;;;;;;;4985766;28;58877;-76
2024/03/31 11:07:12;;;;;;;1.20;1.15;;;;;;;;;;5003674;28;58067;-76
2024/03/31 11:09:38;;;;;;;1.30;1.20;;;;;;;;;;5000002;28;58986;-76
2024/03/31 11:12:04;;;;;;;1.20;1.20;;;;;;;;;;4995735;28;57875;-76
2024/03/31 11:14:31;;;;;;;1.13;1.10;;;;;;;;;;4996145;28;58610;-76
2024/03/31 11:16:56;;;;;;;1.38;1.27;;;;;;;;;;5009505;28;58087;-76
2024/03/31 11:19:23;;;;;;;1.27;1.23;;;;;;;;;;5007351;28;58059;-76
2024/03/31 11:21:54;;;;;;;1.63;1.52;;;;;;;;;;5005287;28;58148;-76
2024/03/31 11:24:19;;;;;;;1.50;1.40;;;;;;;;;;5005228;28;58909;-76
2024/03/31 11:26:44;;;;;;;1.63;1.20;;;;;;;;;;5005330;28;58092;-76
2024/03/31 11:29:09;;;;;;;1.50;1.40;;;;;;;;;;5006263;28;59435;-76
2024/03/31 11:31:35;;;;;;;1.73;1.63;;;;;;;;;;5005804;28;57874;-76
2024/03/31 11:34:02;;;;;;;1.92;1.70;;;;;;;;;;5009707;28;58774;-76
2024/03/31 11:36:27;;;;;;;1.70;1.60;;;;;;;;;;5004737;28;60001;-76
2024/03/31 11:38:52;;;;;;;1.80;1.70;;;;;;;;;;5006828;28;57909;-76
2024/03/31 11:41:17;;;;;;;1.70;1.60;;;;;;;;;;5002584;28;58386;-76
2024/03/31 11:43:42;;;;;;;2.30;1.73;;;;;;;;;;5008460;28;58560;-76
2024/03/31 11:46:08;;;;;;;1.67;1.57;;;;;;;;;;5005988;28;57936;-76
2024/03/31 11:48:33;;;;;;;2.20;2.03;;;;;;;;;;5005018;28;58601;-76
2024/03/31 11:50:58;;;;;;;1.77;1.67;;;;;;;;;;5008218;28;57620;-75
2024/03/31 11:53:23;;;;;;;1.70;1.60;;;;;;;;;;5005603;28;58599;-75
2024/03/31 11:55:49;;;;;;;1.83;1.45;;;;;;;;;;5006005;28;58904;-75
2024/03/31 11:58:14;;;;;;;1.97;1.87;;;;;;;;;;5007238;28;58013;-75
2024/03/31 12:00:48;;;;;;;2.17;1.98;;;;;;;;;;5004906;28;58421;-75
2024/03/31 12:03:13;;;;;;;1.60;1.50;;;;;;;;;;5006697;28;57897;-75
2024/03/31 12:05:38;;;;;;;1.63;1.52;;;;;;;;;;5007161;28;57913;-76
2024/03/31 12:08:03;;;;;;;2.47;2.00;;;;;;;;;;5007878;28;57966;-76
2024/03/31 12:10:29;;;;;;;1.85;1.75;;;;;;;;;;5006573;28;57964;-77
2024/03/31 12:12:55;;;;;;;2.33;2.13;;;;;;;;;;4998621;28;58824;-76
2024/03/31 12:15:20;;;;;;;1.73;1.63;;;;;;;;;;4993995;28;57993;-75
2024/03/31 12:17:45;;;;;;;1.67;1.57;;;;;;;;;;4996635;28;57890;-76
2024/03/31 12:20:10;;;;;;;1.93;1.83;;;;;;;;;;4995235;28;58811;-75
2024/03/31 12:22:36;;;;;;;1.80;1.70;;;;;;;;;;4996297;28;58086;-76
2024/03/31 12:25:03;;;;;;;2.00;1.80;;;;;;;;;;4994070;28;57863;-76
2024/03/31 12:27:28;;;;;;;2.03;1.70;;;;;;;;;;5000661;28;59493;-76
2024/03/31 12:29:53;;;;;;;1.63;1.53;;;;;;;;;;4998400;28;58094;-76
2024/03/31 12:32:19;;;;;;;1.90;1.77;;;;;;;;;;4993492;28;58120;-76
2024/03/31 12:34:46;;;;;;;2.35;1.70;;;;;;;;;;4985196;28;58910;-77
2024/03/31 12:37:11;;;;;;;2.10;1.90;;;;;;;;;;5005751;28;58118;-76
2024/03/31 12:39:37;;;;;;;2.17;1.88;;;;;;;;;;4998164;28;58442;-76
2024/03/31 12:42:02;;;;;;;2.28;2.08;;;;;;;;;;4994550;28;59030;-77
2024/03/31 12:44:28;;;;;;;2.03;1.83;;;;;;;;;;4999217;28;58467;-77
2024/03/31 12:46:53;;;;;;;1.73;1.63;;;;;;;;;;5011593;28;58442;-76
2024/03/31 12:49:19;;;;;;;2.50;1.80;;;;;;;;;;5008527;28;58931;-76
2024/03/31 12:51:51;;;;;;;1.88;1.77;;;;;;;;;;5009489;28;57969;-77
2024/03/31 12:54:17;;;;;;;1.80;1.70;;;;;;;;;;5009224;28;59323;-76
2024/03/31 12:56:42;;;;;;;1.88;1.77;;;;;;;;;;5010126;28;58432;-77
2024/03/31 12:59:07;;;;;;;2.43;1.93;;;;;;;;;;5008855;28;60990;-76
2024/03/31 13:01:33;;;;;;;1.97;1.83;;;;;;;;;;5008428;28;59086;-77
2024/03/31 13:03:58;;;;;;;1.80;1.70;;;;;;;;;;5007620;28;58391;-76
2024/03/31 13:06:23;;;;;;;2.27;2.17;;;;;;;;;;5007375;27;59747;-76
2024/03/31 13:08:50;;;;;;;1.52;1.42;;;;;;;;;;5007777;28;58712;-77
2024/03/31 13:11:16;;;;;;;2.25;2.05;;;;;;;;;;5010284;28;58320;-76
2024/03/31 13:13:41;;;;;;;2.67;2.47;;;;;;;;;;5009309;28;59463;-77
2024/03/31 13:16:07;;;;;;;2.43;2.23;;;;;;;;;;5008321;28;58486;-76
2024/03/31 13:18:32;;;;;;;1.48;1.38;;;;;;;;;;5007062;28;60322;-76
2024/03/31 13:20:57;;;;;;;2.58;2.38;;;;;;;;;;5000621;28;58398;-76
2024/03/31 13:23:23;;;;;;;2.30;2.20;;;;;;;;;;4997384;28;58612;-75
2024/03/31 13:25:48;;;;;;;2.15;1.73;;;;;;;;;;4996466;28;59500;-76
2024/03/31 13:28:14;;;;;;;2.13;2.00;;;;;;;;;;4993083;28;59845;-76
2024/03/31 13:30:39;;;;;;;1.97;1.87;;;;;;;;;;4995844;28;58395;-76
2024/03/31 13:33:04;;;;;;;1.75;1.65;;;;;;;;;;4992135;28;58469;-76
2024/03/31 13:35:30;;;;;;;1.50;1.40;;;;;;;;;;4995502;28;58916;-77
2024/03/31 13:37:57;;;;;;;2.05;1.85;;;;;;;;;;5013297;28;58442;-76
2024/03/31 13:40:22;;;;;;;1.80;1.63;;;;;;;;;;5007639;28;59383;-76
2024/03/31 13:42:47;;;;;;;1.90;1.80;;;;;;;;;;5008008;28;58320;-76
2024/03/31 13:45:14;;;;;;;4.40;1.80;;;;;;;;;;5009675;28;58398;-75
2024/03/31 13:47:39;;;;;;;2.13;1.92;;;;;;;;;;5007558;28;58960;-74
2024/03/31 13:50:04;;;;;;;1.60;1.50;;;;;;;;;;5008862;28;58443;-74
2024/03/31 13:52:30;;;;;;;2.75;1.85;;;;;;;;;;5005731;28;58505;-75
2024/03/31 13:54:55;;;;;;;3.08;1.95;;;;;;;;;;5005454;28;58581;-75
2024/03/31 13:57:22;;;;;;;2.33;1.60;;;;;;;;;;5008092;28;58572;-75
2024/03/31 13:59:47;;;;;;;1.50;1.38;;;;;;;;;;5007174;28;58965;-76
2024/03/31 14:02:12;;;;;;;1.63;1.53;;;;;;;;;;5005064;28;58499;-75
2024/03/31 14:04:37;;;;;;;2.80;1.97;;;;;;;;;;5010115;28;59783;-75
2024/03/31 14:07:03;;;;;;;1.73;1.60;;;;;;;;;;4992736;28;58538;-75
2024/03/31 14:09:28;;;;;;;3.53;1.70;;;;;;;;;;5000746;28;58425;-76
2024/03/31 14:11:53;;;;;;;1.98;1.73;;;;;;;;;;5003787;28;59384;-77
2024/03/31 14:14:18;;;;;;;2.00;1.80;;;;;;;;;;4994241;28;58587;-73
2024/03/31 14:16:43;;;;;;;2.15;1.73;;;;;;;;;;5007295;28;58354;-76
2024/03/31 14:19:08;;;;;;;5.53;1.63;;;;;;;;;;5007475;28;59395;-77
2024/03/31 14:21:33;;;;;;;1.23;1.10;;;;;;;;;;5006751;28;58523;-75
2024/03/31 14:23:59;;;;;;;1.50;1.40;;;;;;;;;;5006188;28;59735;-75
2024/03/31 14:26:24;;;;;;;1.63;1.53;;;;;;;;;;5007100;28;58574;-75